Time;durP1;ratioP1;P1;durP2;ratioP2;P2;SDS_P1;SDS_P2;PMS_P1;PMS_P2;Temp;Humidity;BMP_temperature;BMP_pressure;BME280_temperature;BME280_humidity;BME280_pressure;Samples;Min_cycle;Max_cycle;Signal;HPM_P1;HPM_P2
2021/08/03 00:02:24;;;;;;;2.88;2.15;;;14.30;99.90;;;;;;5052582;28;20021;-78
2021/08/03 00:04:55;;;;;;;4.45;1.63;;;14.30;99.90;;;;;;5053200;28;20052;-77
2021/08/03 00:07:23;;;;;;;2.40;1.52;;;14.30;99.90;;;;;;5052775;28;20484;-77
2021/08/03 00:09:49;;;;;;;2.67;1.95;;;14.30;99.90;;;;;;5053036;28;20032;-77
2021/08/03 00:12:17;;;;;;;1.65;1.55;;;14.30;99.90;;;;;;5059197;28;20115;-77
2021/08/03 00:14:43;;;;;;;;;;;14.30;99.90;;;;;;5063176;28;20088;-78
2021/08/03 00:17:15;;;;;;;2.00;1.48;;;14.30;99.90;;;;;;5066862;28;19924;-79
2021/08/03 00:19:42;;;;;;;2.25;1.60;;;14.20;99.90;;;;;;5065619;28;20017;-77
2021/08/03 00:22:08;;;;;;;5.17;1.87;;;14.20;99.90;;;;;;5065989;28;20061;-77
2021/08/03 00:24:35;;;;;;;1.75;1.63;;;14.20;99.90;;;;;;5066250;28;20287;-79
2021/08/03 00:27:03;;;;;;;2.60;1.63;;;14.10;99.90;;;;;;5078940;28;20045;-78
2021/08/03 00:29:29;;;;;;;3.80;1.52;;;14.20;99.90;;;;;;5069874;28;20032;-79
2021/08/03 00:31:55;;;;;;;3.20;1.45;;;14.10;99.90;;;;;;5071404;28;20027;-79
2021/08/03 00:34:21;;;;;;;1.85;1.55;;;14.10;99.90;;;;;;5073081;28;20021;-78
2021/08/03 00:36:47;;;;;;;1.80;1.30;;;14.10;99.90;;;;;;5070666;28;20036;-78
2021/08/03 00:39:13;;;;;;;3.63;1.40;;;14.10;99.90;;;;;;5067162;28;20021;-79
2021/08/03 00:42:00;;;;;;;3.10;1.60;;;14.10;99.90;;;;;;5067608;28;20473;-78
2021/08/03 00:44:45;;;;;;;1.88;1.52;;;14.10;99.90;;;;;;5065148;28;20036;-78
2021/08/03 00:47:14;;;;;;;2.42;1.35;;;14.20;99.90;;;;;;5071233;28;20041;-78
2021/08/03 00:49:40;;;;;;;1.77;1.17;;;14.20;99.90;;;;;;5071868;28;20025;-78
2021/08/03 00:52:09;;;;;;;2.42;1.30;;;14.20;99.90;;;;;;5068564;28;20044;-78
2021/08/03 00:54:35;;;;;;;2.92;1.27;;;14.20;99.90;;;;;;5075580;28;20051;-78
2021/08/03 00:57:01;;;;;;;2.33;1.50;;;14.20;99.90;;;;;;5058303;28;20025;-78
2021/08/03 00:59:27;;;;;;;1.60;1.48;;;14.20;99.90;;;;;;5056813;28;20179;-77
2021/08/03 01:01:54;;;;;;;1.52;1.20;;;14.20;99.90;;;;;;5054334;28;20036;-78
2021/08/03 01:04:19;;;;;;;1.27;1.20;;;14.20;99.90;;;;;;5053234;28;20123;-77
2021/08/03 01:07:17;;;;;;;1.85;1.25;;;14.20;99.90;;;;;;5052901;28;20056;-78
2021/08/03 01:09:43;;;;;;;1.67;1.10;;;14.20;99.90;;;;;;5051392;28;20028;-79
2021/08/03 01:12:33;;;;;;;3.00;1.00;;;14.10;99.90;;;;;;5052270;28;20029;-79
2021/08/03 01:15:22;;;;;;;2.45;1.10;;;14.10;99.90;;;;;;5057003;28;20481;-75
2021/08/03 01:18:14;;;;;;;1.63;1.27;;;14.20;99.90;;;;;;5051330;28;20049;-77
2021/08/03 01:20:50;;;;;;;2.03;1.10;;;14.20;99.90;;;;;;5050451;28;20083;-77
2021/08/03 01:23:54;;;;;;;2.00;1.48;;;14.20;99.90;;;;;;5051531;28;20096;-76
2021/08/03 01:26:48;;;;;;;3.38;1.48;;;14.20;99.90;;;;;;5049892;28;20029;-77
2021/08/03 01:29:17;;;;;;;6.00;1.48;;;14.30;99.90;;;;;;5051681;28;20032;-78
2021/08/03 01:31:48;;;;;;;4.10;1.70;;;14.30;99.90;;;;;;5051733;28;20037;-78
2021/08/03 01:34:16;;;;;;;1.13;1.02;;;14.30;99.90;;;;;;5066477;28;20021;-78
2021/08/03 01:36:48;;;;;;;4.05;1.20;;;14.30;99.90;;;;;;5050265;28;20067;-77
2021/08/03 01:39:16;;;;;;;2.17;1.33;;;14.30;99.90;;;;;;5052863;28;20124;-78
2021/08/03 01:41:48;;;;;;;4.07;1.77;;;14.30;99.90;;;;;;5069634;28;20044;-77
2021/08/03 01:44:15;;;;;;;2.35;1.30;;;14.20;99.90;;;;;;5054559;28;20025;-77
2021/08/03 01:46:42;;;;;;;2.28;1.30;;;14.20;99.90;;;;;;5055252;28;20480;-77
2021/08/03 01:49:12;;;;;;;1.63;1.52;;;14.20;99.90;;;;;;5054947;28;20057;-77
2021/08/03 01:51:39;;;;;;;5.28;1.10;;;14.20;99.90;;;;;;5050088;28;20049;-79
2021/08/03 01:54:05;;;;;;;1.95;0.90;;;14.30;99.90;;;;;;5054863;28;20060;-77
2021/08/03 01:56:31;;;;;;;1.23;1.00;;;14.30;99.90;;;;;;5050932;28;20431;-78
2021/08/03 01:58:59;;;;;;;1.20;1.10;;;14.20;99.90;;;;;;5052399;28;20032;-78
2021/08/03 02:01:27;;;;;;;0.90;0.90;;;14.20;99.90;;;;;;5054886;28;20028;-78
2021/08/03 02:03:54;;;;;;;2.10;0.90;;;14.30;99.90;;;;;;5052083;28;20385;-78
2021/08/03 02:06:24;;;;;;;4.95;1.40;;;14.20;99.90;;;;;;5054585;28;20063;-78
2021/08/03 02:08:54;;;;;;;3.35;1.65;;;14.20;99.90;;;;;;5054087;28;20199;-78
2021/08/03 02:11:28;;;;;;;7.38;1.15;;;14.20;99.90;;;;;;5053066;28;20045;-78
2021/08/03 02:13:55;;;;;;;2.28;1.05;;;14.20;99.90;;;;;;5066696;28;20029;-78
2021/08/03 02:16:20;;;;;;;3.22;1.23;;;14.10;99.90;;;;;;5053800;28;20021;-78
2021/08/03 02:18:47;;;;;;;2.72;1.52;;;14.10;99.90;;;;;;5052749;28;20047;-78
2021/08/03 02:21:17;;;;;;;3.80;1.38;;;14.10;99.90;;;;;;5052356;28;20017;-79
2021/08/03 02:23:43;;;;;;;2.17;1.20;;;14.10;99.90;;;;;;5054284;28;20032;-78
2021/08/03 02:26:10;;;;;;;2.95;1.25;;;14.10;99.90;;;;;;5054313;28;20017;-78
2021/08/03 02:28:36;;;;;;;3.28;0.98;;;14.10;99.90;;;;;;5054155;28;20351;-77
2021/08/03 02:31:13;;;;;;;3.00;1.30;;;14.00;99.90;;;;;;5052993;28;20033;-77
2021/08/03 02:33:48;;;;;;;1.58;1.40;;;14.00;99.90;;;;;;5051672;28;20052;-78
2021/08/03 02:36:20;;;;;;;1.40;1.30;;;14.00;99.90;;;;;;5054132;28;20032;-78
2021/08/03 02:38:53;;;;;;;1.40;1.05;;;14.00;99.90;;;;;;5053500;28;20480;-78
2021/08/03 02:41:20;;;;;;;2.95;1.20;;;14.00;99.90;;;;;;5053134;28;20032;-78
2021/08/03 02:43:48;;;;;;;1.30;1.20;;;14.00;99.90;;;;;;5053982;28;20021;-78
2021/08/03 02:46:15;;;;;;;2.22;1.13;;;13.90;99.90;;;;;;5052763;28;20041;-77
2021/08/03 02:48:41;;;;;;;2.20;1.30;;;13.90;99.90;;;;;;5061986;28;20413;-79
2021/08/03 02:51:09;;;;;;;1.45;1.00;;;13.90;99.90;;;;;;5055017;28;20104;-77
2021/08/03 02:53:49;;;;;;;;;;;13.90;99.90;;;;;;5053007;28;20036;-77
2021/08/03 02:56:17;;;;;;;2.65;1.10;;;13.90;99.90;;;;;;5053543;28;19915;-78
2021/08/03 02:58:55;;;;;;;3.20;2.13;;;13.90;99.90;;;;;;5052595;28;20079;-78
2021/08/03 03:01:22;;;;;;;2.75;1.17;;;13.80;99.90;;;;;;5053699;28;21310;-77
2021/08/03 03:03:51;;;;;;;1.63;1.00;;;13.80;99.90;;;;;;5050101;28;20032;-77
2021/08/03 03:06:19;;;;;;;2.45;1.50;;;13.70;99.90;;;;;;5053724;28;20053;-77
2021/08/03 03:08:46;;;;;;;2.30;1.27;;;13.70;99.90;;;;;;5050921;28;20021;-76
2021/08/03 03:11:15;;;;;;;3.55;1.30;;;13.60;99.90;;;;;;5054334;28;20033;-77
2021/08/03 03:13:51;;;;;;;2.40;1.35;;;13.60;99.90;;;;;;5068479;28;20017;-77
2021/08/03 03:16:19;;;;;;;2.03;1.42;;;13.60;99.90;;;;;;5052435;28;20087;-77
2021/08/03 03:18:45;;;;;;;;;;;13.60;99.90;;;;;;5055478;28;20518;-77
2021/08/03 03:21:14;;;;;;;2.35;1.30;;;13.60;99.90;;;;;;5052424;28;19905;-77
2021/08/03 03:23:41;;;;;;;3.88;1.45;;;13.60;99.90;;;;;;5051586;28;21764;-78
2021/08/03 03:26:07;;;;;;;1.73;1.55;;;13.50;99.90;;;;;;5061157;28;20029;-77
2021/08/03 03:28:34;;;;;;;3.53;2.22;;;13.50;99.90;;;;;;5051375;28;20029;-76
2021/08/03 03:31:01;;;;;;;4.25;1.35;;;13.50;99.90;;;;;;5051738;28;20021;-76
2021/08/03 03:33:28;;;;;;;2.67;1.42;;;13.50;99.90;;;;;;5051040;28;20072;-76
2021/08/03 03:35:58;;;;;;;3.25;1.40;;;13.60;99.90;;;;;;5052589;28;20046;-76
2021/08/03 03:38:27;;;;;;;2.38;1.42;;;13.60;99.90;;;;;;5053723;28;20489;-76
2021/08/03 03:40:53;;;;;;;2.63;1.25;;;13.60;99.90;;;;;;5053293;28;20021;-77
2021/08/03 03:43:20;;;;;;;1.77;1.45;;;13.70;99.90;;;;;;5051598;28;20465;-77
2021/08/03 03:45:55;;;;;;;5.93;1.53;;;13.70;99.90;;;;;;5051876;28;20419;-77
2021/08/03 03:48:25;;;;;;;1.83;1.30;;;13.70;99.90;;;;;;5050959;28;20286;-77
2021/08/03 03:50:59;;;;;;;3.05;1.10;;;13.80;99.90;;;;;;5049679;28;20021;-78
2021/08/03 03:53:34;;;;;;;1.25;1.15;;;13.80;99.90;;;;;;5051251;28;20029;-77
2021/08/03 03:56:03;;;;;;;1.20;1.10;;;13.90;99.90;;;;;;5052050;28;20120;-77
2021/08/03 03:58:39;;;;;;;1.20;1.10;;;13.90;99.90;;;;;;5065715;28;20021;-77
2021/08/03 04:01:05;;;;;;;1.75;1.33;;;13.90;99.90;;;;;;5051230;28;20046;-76
2021/08/03 04:03:36;;;;;;;3.88;1.48;;;14.00;99.90;;;;;;5053061;28;20029;-76
2021/08/03 04:06:02;;;;;;;1.40;1.30;;;14.00;99.90;;;;;;5050329;28;20033;-77
2021/08/03 04:08:31;;;;;;;1.70;1.00;;;14.00;99.90;;;;;;5051794;28;20025;-76
2021/08/03 04:11:01;;;;;;;1.85;1.48;;;14.10;99.90;;;;;;5052761;28;20025;-76
2021/08/03 04:13:28;;;;;;;3.33;2.35;;;14.10;99.90;;;;;;5051520;28;20029;-76
2021/08/03 04:15:53;;;;;;;1.75;1.40;;;14.00;99.90;;;;;;5053015;28;20033;-76
2021/08/03 04:18:19;;;;;;;6.35;1.35;;;14.00;99.90;;;;;;5053197;28;20370;-76
2021/08/03 04:20:44;;;;;;;6.22;1.50;;;13.90;99.90;;;;;;5053629;28;20029;-77
2021/08/03 04:23:10;;;;;;;4.45;1.48;;;13.90;99.90;;;;;;5066142;28;20025;-77
2021/08/03 04:25:36;;;;;;;1.40;1.30;;;14.00;99.90;;;;;;5068017;28;20028;-78
2021/08/03 04:28:01;;;;;;;2.83;1.35;;;14.00;99.90;;;;;;5070629;28;20037;-77
2021/08/03 04:30:27;;;;;;;4.03;1.80;;;14.00;99.90;;;;;;5067929;28;20021;-76
2021/08/03 04:32:53;;;;;;;2.25;1.45;;;14.10;99.90;;;;;;5069345;28;20036;-77
2021/08/03 04:35:18;;;;;;;4.35;1.55;;;14.10;99.90;;;;;;5071004;28;20055;-77
2021/08/03 04:37:47;;;;;;;1.35;1.20;;;14.10;99.90;;;;;;5072491;28;20021;-77
2021/08/03 04:40:15;;;;;;;1.30;1.20;;;14.20;99.90;;;;;;5072298;28;20032;-77
2021/08/03 04:42:43;;;;;;;2.38;1.80;;;14.20;99.90;;;;;;5073296;28;20021;-78
2021/08/03 04:45:09;;;;;;;3.30;1.80;;;14.20;99.90;;;;;;5073340;28;20027;-79
2021/08/03 04:47:46;;;;;;;5.70;2.30;;;14.20;99.90;;;;;;5074445;28;20043;-77
2021/08/03 04:50:15;;;;;;;5.82;1.77;;;14.30;99.90;;;;;;5073473;28;20036;-79
2021/08/03 04:52:41;;;;;;;5.50;2.55;;;14.20;99.90;;;;;;5074220;28;20068;-79
2021/08/03 04:55:08;;;;;;;8.10;2.53;;;14.30;99.90;;;;;;5072984;28;20010;-77
2021/08/03 04:57:34;;;;;;;2.60;1.48;;;14.20;99.90;;;;;;5071455;28;20041;-76
2021/08/03 05:00:00;;;;;;;7.20;2.20;;;14.20;99.90;;;;;;5057584;28;20481;-76
2021/08/03 05:02:26;;;;;;;5.18;2.13;;;14.20;99.90;;;;;;5056423;28;20025;-77
2021/08/03 05:04:52;;;;;;;5.57;1.75;;;14.30;99.90;;;;;;5055315;28;20545;-76
2021/08/03 05:07:17;;;;;;;3.97;1.75;;;14.30;99.90;;;;;;5055287;28;20106;-78
2021/08/03 05:09:43;;;;;;;7.20;2.13;;;14.30;99.90;;;;;;5053941;28;20041;-76
2021/08/03 05:12:09;;;;;;;2.67;1.67;;;14.40;99.90;;;;;;5054292;28;20040;-77
2021/08/03 05:14:34;;;;;;;2.22;2.03;;;14.40;99.90;;;;;;5057331;28;20056;-77
2021/08/03 05:17:00;;;;;;;5.30;2.03;;;14.40;99.90;;;;;;5056609;28;20103;-75
2021/08/03 05:19:26;;;;;;;5.35;1.88;;;14.50;99.90;;;;;;5056573;28;20013;-77
2021/08/03 05:21:51;;;;;;;5.15;2.97;;;14.50;99.90;;;;;;5056547;28;20105;-76
2021/08/03 05:24:19;;;;;;;5.53;1.45;;;14.50;99.90;;;;;;5054719;28;20037;-76
2021/08/03 05:26:45;;;;;;;3.55;1.55;;;14.50;99.90;;;;;;5053270;28;20041;-77
2021/08/03 05:29:10;;;;;;;4.60;1.45;;;14.60;99.90;;;;;;5052394;28;20076;-77
2021/08/03 05:31:36;;;;;;;2.35;1.35;;;14.70;99.90;;;;;;5055104;28;20095;-77
2021/08/03 05:34:03;;;;;;;1.20;1.00;;;14.70;99.90;;;;;;5052325;28;20025;-77
2021/08/03 05:36:28;;;;;;;2.08;1.85;;;14.80;99.90;;;;;;5053426;28;20433;-76
2021/08/03 05:38:54;;;;;;;1.33;1.23;;;14.80;99.90;;;;;;5071152;28;20132;-77
2021/08/03 05:41:20;;;;;;;6.68;1.70;;;14.80;99.90;;;;;;5054573;28;20032;-77
2021/08/03 05:43:45;;;;;;;4.38;2.30;;;14.90;99.90;;;;;;5052448;28;20040;-77
2021/08/03 05:46:11;;;;;;;3.45;1.63;;;14.90;99.90;;;;;;5054631;28;20029;-77
2021/08/03 05:48:36;;;;;;;4.30;1.80;;;15.00;99.90;;;;;;5053993;28;20028;-77
2021/08/03 05:51:02;;;;;;;3.33;1.50;;;15.00;99.90;;;;;;5055197;28;20044;-77
2021/08/03 05:53:28;;;;;;;3.58;2.58;;;15.10;99.90;;;;;;5053381;28;20037;-76
2021/08/03 05:55:53;;;;;;;4.28;1.80;;;15.20;99.90;;;;;;5052564;28;20477;-76
2021/08/03 05:58:19;;;;;;;3.42;1.45;;;15.40;99.90;;;;;;5052174;28;20135;-78
2021/08/03 06:00:45;;;;;;;1.88;1.30;;;15.50;99.90;;;;;;5054824;28;20067;-76
2021/08/03 06:03:11;;;;;;;4.40;1.50;;;15.60;99.90;;;;;;5069394;28;20037;-76
2021/08/03 06:05:39;;;;;;;11.15;1.60;;;15.70;99.90;;;;;;5053545;28;20071;-76
2021/08/03 06:08:10;;;;;;;2.72;1.67;;;15.80;99.90;;;;;;5055113;28;20024;-76
2021/08/03 06:10:37;;;;;;;5.80;1.95;;;16.00;99.90;;;;;;5069341;28;20021;-76
2021/08/03 06:13:04;;;;;;;3.10;1.70;;;16.20;99.90;;;;;;5053373;28;20124;-77
2021/08/03 06:15:33;;;;;;;4.93;2.05;;;16.30;99.90;;;;;;5055673;28;20377;-76
2021/08/03 06:18:31;;;;;;;3.70;1.60;;;16.40;99.90;;;;;;5055098;28;20024;-75
2021/08/03 06:20:58;;;;;;;2.80;1.42;;;16.50;99.90;;;;;;5051938;28;20035;-75
2021/08/03 06:23:25;;;;;;;4.43;1.50;;;16.70;99.90;;;;;;5050617;28;20043;-76
2021/08/03 06:25:52;;;;;;;2.15;1.55;;;16.90;99.90;;;;;;5049952;28;20424;-76
2021/08/03 06:28:21;;;;;;;1.88;0.80;;;17.20;99.90;;;;;;5052971;28;20029;-76
2021/08/03 06:30:48;;;;;;;3.65;0.82;;;17.00;99.90;;;;;;5052534;28;20033;-76
2021/08/03 06:33:17;;;;;;;3.07;0.87;;;17.00;99.90;;;;;;5052425;28;20053;-76
2021/08/03 06:35:44;;;;;;;1.23;0.80;;;17.00;99.90;;;;;;5047241;28;20035;-76
2021/08/03 06:38:10;;;;;;;2.30;1.10;;;16.90;99.90;;;;;;5054092;28;20060;-77
2021/08/03 06:40:44;;;;;;;3.15;0.85;;;16.70;99.90;;;;;;5051273;28;20029;-77
2021/08/03 06:43:16;;;;;;;1.67;0.75;;;16.70;99.90;;;;;;5062826;28;20048;-78
2021/08/03 06:45:46;;;;;;;2.65;1.02;;;16.60;99.90;;;;;;5053458;28;20481;-76
2021/08/03 06:48:32;;;;;;;4.30;1.20;;;16.60;99.90;;;;;;5067074;28;20044;-76
2021/08/03 06:51:04;;;;;;;8.20;1.63;;;16.50;99.90;;;;;;5051978;28;20029;-76
2021/08/03 06:53:30;;;;;;;4.60;1.30;;;16.40;99.90;;;;;;5050821;28;20040;-76
2021/08/03 06:56:02;;;;;;;2.17;1.75;;;16.30;99.90;;;;;;5052095;28;20037;-76
2021/08/03 06:58:33;;;;;;;2.63;0.82;;;16.40;99.90;;;;;;5053435;28;20029;-76
2021/08/03 07:01:04;;;;;;;2.40;1.05;;;16.30;99.90;;;;;;5053844;28;20122;-77
2021/08/03 07:03:37;;;;;;;11.57;2.38;;;16.30;99.90;;;;;;5054405;28;20033;-76
2021/08/03 07:06:05;;;;;;;2.72;1.65;;;16.30;99.90;;;;;;5063101;28;20087;-76
2021/08/03 07:08:33;;;;;;;0.98;0.98;;;16.40;99.90;;;;;;5052436;28;20043;-78
2021/08/03 07:11:00;;;;;;;1.63;0.90;;;16.60;99.90;;;;;;5051349;28;20116;-76
2021/08/03 07:13:27;;;;;;;2.03;1.10;;;16.60;99.90;;;;;;5060060;28;20093;-76
2021/08/03 07:15:53;;;;;;;6.57;1.55;;;16.60;99.90;;;;;;5057836;28;20075;-76
2021/08/03 07:18:20;;;;;;;1.13;1.00;;;16.80;99.90;;;;;;5055345;28;20056;-76
2021/08/03 07:20:48;;;;;;;5.93;1.00;;;16.90;99.90;;;;;;5048585;28;20029;-76
2021/08/03 07:23:18;;;;;;;8.15;1.52;;;17.10;99.90;;;;;;5051742;28;20036;-76
2021/08/03 07:25:46;;;;;;;7.47;2.50;;;17.10;99.90;;;;;;5052351;28;20032;-76
2021/08/03 07:28:12;;;;;;;2.05;0.90;;;17.10;99.90;;;;;;5049698;28;20032;-76
2021/08/03 07:30:42;;;;;;;1.30;0.80;;;17.10;99.90;;;;;;5051047;28;20032;-81
2021/08/03 07:33:14;;;;;;;3.15;0.88;;;17.10;99.90;;;;;;5051932;28;20047;-74
2021/08/03 07:35:41;;;;;;;4.28;0.70;;;17.40;99.90;;;;;;5065957;28;20480;-78
2021/08/03 07:38:07;;;;;;;;;;;17.50;99.90;;;;;;5053053;28;20021;-77
2021/08/03 07:40:35;;;;;;;1.52;0.90;;;17.60;99.90;;;;;;5051383;28;20303;-80
2021/08/03 07:43:00;;;;;;;;;;;17.90;99.90;;;;;;5052399;28;20392;-75
2021/08/03 07:45:26;;;;;;;7.25;1.25;;;17.90;99.90;;;;;;5053325;28;19916;-79
2021/08/03 07:47:52;;;;;;;4.32;0.90;;;17.80;99.90;;;;;;5052708;28;20033;-77
2021/08/03 07:50:19;;;;;;;0.85;0.80;;;17.70;99.90;;;;;;5052404;28;20421;-78
2021/08/03 07:52:44;;;;;;;2.70;0.90;;;17.70;99.90;;;;;;5052688;28;20045;-79
2021/08/03 07:55:10;;;;;;;0.85;0.77;;;17.70;99.90;;;;;;5051600;28;20279;-76
2021/08/03 07:57:36;;;;;;;0.80;0.80;;;17.60;99.90;;;;;;5051965;28;20362;-75
2021/08/03 08:00:01;;;;;;;3.63;1.10;;;17.50;99.90;;;;;;5048807;28;20086;-76
2021/08/03 08:02:28;;;;;;;7.25;2.55;;;17.60;99.90;;;;;;5050893;28;20036;-76
2021/08/03 08:04:54;;;;;;;2.65;1.25;;;17.70;99.90;;;;;;5050580;28;20026;-76
2021/08/03 08:07:19;;;;;;;3.15;1.05;;;17.60;99.90;;;;;;5051405;28;20035;-76
2021/08/03 08:09:45;;;;;;;3.25;1.30;;;17.50;99.90;;;;;;5051383;28;20033;-76
2021/08/03 08:12:10;;;;;;;10.18;1.13;;;17.50;99.90;;;;;;5051212;28;20496;-76
2021/08/03 08:14:36;;;;;;;1.27;0.90;;;17.40;99.90;;;;;;5051904;28;20032;-76
2021/08/03 08:17:02;;;;;;;1.75;0.90;;;17.30;99.90;;;;;;5049018;28;20071;-75
2021/08/03 08:19:28;;;;;;;3.78;1.10;;;17.20;99.90;;;;;;5066514;28;20061;-75
2021/08/03 08:21:53;;;;;;;4.38;0.90;;;17.20;99.90;;;;;;5055548;28;20021;-75
2021/08/03 08:24:19;;;;;;;2.10;0.80;;;17.10;99.90;;;;;;5052062;28;20036;-76
2021/08/03 08:26:46;;;;;;;3.55;1.00;;;17.10;99.90;;;;;;5052663;28;20029;-76
2021/08/03 08:29:16;;;;;;;1.45;0.82;;;17.10;99.90;;;;;;5052683;28;20029;-77
2021/08/03 08:31:42;;;;;;;2.58;0.90;;;17.10;99.90;;;;;;5051918;28;20033;-76
2021/08/03 08:34:09;;;;;;;3.67;0.93;;;17.20;99.90;;;;;;5058546;28;20071;-76
2021/08/03 08:36:34;;;;;;;7.57;1.15;;;17.40;99.90;;;;;;5053472;28;20051;-75
2021/08/03 08:39:00;;;;;;;2.92;1.20;;;17.50;99.90;;;;;;5054700;28;20085;-75
2021/08/03 08:41:26;;;;;;;2.05;1.00;;;17.60;99.90;;;;;;5054592;28;20107;-76
2021/08/03 08:43:52;;;;;;;1.58;0.93;;;17.60;99.90;;;;;;5052801;28;20393;-75
2021/08/03 08:46:18;;;;;;;4.68;1.05;;;17.70;99.90;;;;;;5054783;28;20032;-76
2021/08/03 08:48:45;;;;;;;3.38;0.88;;;17.70;99.90;;;;;;5062677;28;20025;-76
2021/08/03 08:51:11;;;;;;;1.90;0.95;;;17.70;99.90;;;;;;5068752;28;20051;-77
2021/08/03 08:53:37;;;;;;;11.48;2.33;;;17.60;99.90;;;;;;5067559;28;20009;-77
2021/08/03 08:56:04;;;;;;;13.73;2.38;;;17.60;99.90;;;;;;5067743;28;20041;-76
2021/08/03 08:58:34;;;;;;;2.97;0.88;;;17.80;99.90;;;;;;5070034;28;20021;-76
2021/08/03 09:01:01;;;;;;;6.85;0.80;;;17.90;99.90;;;;;;5071217;28;20036;-75
2021/08/03 09:03:26;;;;;;;3.25;0.57;;;17.90;99.90;;;;;;5070878;28;20021;-75
2021/08/03 09:06:03;;;;;;;2.92;1.08;;;18.00;99.90;;;;;;5072090;28;20021;-75
2021/08/03 09:08:39;;;;;;;1.88;0.70;;;18.00;99.90;;;;;;5071455;28;20081;-75
2021/08/03 09:11:13;;;;;;;3.38;0.70;;;18.10;99.90;;;;;;5071622;28;20048;-76
2021/08/03 09:13:53;;;;;;;2.97;0.68;;;18.10;99.90;;;;;;5071263;28;20021;-78
2021/08/03 09:16:20;;;;;;;2.42;0.70;;;18.30;99.90;;;;;;5072476;28;20096;-77
2021/08/03 09:18:46;;;;;;;1.80;0.90;;;18.50;99.90;;;;;;5071566;28;20036;-76
2021/08/03 09:21:20;;;;;;;2.00;0.65;;;18.70;99.90;;;;;;5063828;28;20021;-72
2021/08/03 09:23:48;;;;;;;1.73;0.68;;;18.80;99.90;;;;;;5055778;28;20036;-72
2021/08/03 09:26:16;;;;;;;7.65;1.25;;;18.70;99.90;;;;;;5052357;28;20021;-74
2021/08/03 09:29:00;;;;;;;2.03;1.42;;;18.90;99.90;;;;;;5053364;28;20496;-76
2021/08/03 09:31:26;;;;;;;2.35;1.05;;;19.00;99.90;;;;;;5054137;28;20052;-80
2021/08/03 09:33:51;;;;;;;3.28;0.80;;;19.30;99.90;;;;;;5054710;28;20024;-79
2021/08/03 09:36:17;;;;;;;2.22;0.70;;;19.90;99.90;;;;;;5054418;28;20028;-82
2021/08/03 09:38:43;;;;;;;5.38;1.02;;;20.40;99.90;;;;;;5052580;28;20040;-81
2021/08/03 09:41:09;;;;;;;4.85;0.80;;;20.90;99.90;;;;;;5054255;28;20028;-87
2021/08/03 09:43:35;;;;;;;5.28;1.23;;;21.60;99.90;;;;;;5053066;28;20382;-83
2021/08/03 09:46:02;;;;;;;2.67;0.93;;;21.40;99.90;;;;;;5051665;28;20029;-82
2021/08/03 09:48:30;;;;;;;1.92;0.80;;;21.50;99.90;;;;;;5048298;28;20129;-81
2021/08/03 09:51:12;;;;;;;2.25;0.93;;;22.10;99.90;;;;;;5046792;28;20017;-81
2021/08/03 09:53:46;;;;;;;2.40;0.93;;;22.60;99.90;;;;;;5046579;28;20081;-82
2021/08/03 09:56:27;;;;;;;3.47;1.33;;;22.70;99.90;;;;;;5051363;28;20036;-81
2021/08/03 09:58:55;;;;;;;4.80;0.88;;;22.60;99.90;;;;;;5051264;28;20033;-73
2021/08/03 10:01:22;;;;;;;1.95;1.00;;;22.30;99.90;;;;;;5054544;28;20112;-77
2021/08/03 10:03:50;;;;;;;4.30;3.45;;;21.90;99.90;;;;;;5054692;28;20507;-76
2021/08/03 10:06:17;;;;;;;2.22;1.10;;;21.60;99.90;;;;;;5053487;28;20021;-77
2021/08/03 10:08:47;;;;;;;2.10;1.50;;;21.60;99.90;;;;;;5058092;28;20032;-77
2021/08/03 10:11:14;;;;;;;3.33;1.48;;;21.40;99.90;;;;;;5056106;28;20043;-78
2021/08/03 10:13:41;;;;;;;4.38;1.50;;;21.40;99.90;;;;;;5053681;28;20029;-77
2021/08/03 10:16:06;;;;;;;4.67;1.30;;;21.40;99.90;;;;;;5054029;28;20029;-80
2021/08/03 10:18:32;;;;;;;4.00;1.50;;;21.30;99.90;;;;;;5071419;28;20260;-79
2021/08/03 10:20:59;;;;;;;1.35;1.23;;;21.20;99.90;;;;;;5054269;28;20499;-77
2021/08/03 10:23:26;;;;;;;3.47;1.60;;;21.30;99.90;;;;;;5057036;28;20037;-74
2021/08/03 10:25:52;;;;;;;3.22;1.75;;;21.40;99.90;;;;;;5053569;28;20029;-73
2021/08/03 10:28:26;;;;;;;4.65;1.63;;;21.80;99.90;;;;;;5054730;28;20037;-76
2021/08/03 10:30:54;;;;;;;3.33;2.08;;;22.20;99.90;;;;;;5052885;28;20040;-75
2021/08/03 10:33:44;;;;;;;2.65;2.03;;;22.10;99.90;;;;;;5057453;28;20020;-75
2021/08/03 10:36:41;;;;;;;3.67;1.63;;;22.20;99.90;;;;;;5056740;28;20020;-78
2021/08/03 10:39:14;;;;;;;3.03;1.70;;;22.10;99.90;;;;;;5058756;28;20530;-77
2021/08/03 10:41:58;;;;;;;4.13;2.25;;;22.20;99.90;;;;;;5052354;28;20567;-77
2021/08/03 10:44:44;;;;;;;4.18;1.77;;;22.40;99.90;;;;;;5053556;28;20025;-78
2021/08/03 10:47:32;;;;;;;2.00;1.80;;;22.80;99.90;;;;;;5052534;28;20024;-72
2021/08/03 10:50:07;;;;;;;2.50;1.70;;;22.80;99.90;;;;;;5053265;28;20447;-73
2021/08/03 10:52:48;;;;;;;4.68;2.30;;;22.90;99.90;;;;;;5067048;28;20076;-75
2021/08/03 10:55:40;;;;;;;2.83;2.20;;;23.20;99.90;;;;;;5059799;28;20051;-77
2021/08/03 10:58:09;;;;;;;7.25;2.67;;;22.80;99.90;;;;;;5053662;28;20108;-76
2021/08/03 11:00:42;;;;;;;6.35;2.55;;;22.10;99.90;;;;;;5051981;28;20036;-77
2021/08/03 11:03:30;;;;;;;2.80;2.28;;;21.70;99.90;;;;;;5066349;28;20408;-79
2021/08/03 11:06:05;;;;;;;3.25;2.20;;;21.60;99.90;;;;;;5061816;28;20045;-79
2021/08/03 11:08:32;;;;;;;6.97;3.67;;;21.50;99.90;;;;;;5053688;28;20427;-78
2021/08/03 11:11:06;;;;;;;9.30;2.60;;;21.00;99.90;;;;;;5052710;28;20124;-76
2021/08/03 11:13:34;;;;;;;9.50;3.13;;;20.70;99.90;;;;;;5052693;28;20029;-75
2021/08/03 11:16:00;;;;;;;5.68;2.60;;;20.70;99.90;;;;;;5052180;28;20029;-78
2021/08/03 11:18:48;;;;;;;13.05;3.53;;;20.60;99.90;;;;;;5052814;28;20431;-77
2021/08/03 11:21:15;;;;;;;2.88;2.47;;;20.30;99.90;;;;;;5051633;28;20029;-78
2021/08/03 11:24:04;;;;;;;7.97;2.80;;;20.00;99.90;;;;;;5053626;28;20048;-74
2021/08/03 11:26:37;;;;;;;4.60;2.40;;;19.80;99.90;;;;;;5050342;28;20429;-73
2021/08/03 11:29:04;;;;;;;6.63;2.42;;;19.90;99.90;;;;;;5053652;28;20033;-75
2021/08/03 11:31:41;;;;;;;3.88;2.53;;;19.70;99.90;;;;;;5052110;28;20538;-72
2021/08/03 11:34:07;;;;;;;3.20;1.98;;;19.60;99.90;;;;;;5047441;28;20492;-73
2021/08/03 11:36:35;;;;;;;4.45;2.13;;;19.60;99.90;;;;;;5053335;28;20368;-74
2021/08/03 11:39:18;;;;;;;6.03;1.98;;;19.50;99.90;;;;;;5050835;28;21404;-74
2021/08/03 11:41:45;;;;;;;2.13;1.98;;;19.50;99.90;;;;;;5051472;28;20041;-74
2021/08/03 11:44:16;;;;;;;2.50;2.30;;;19.50;99.90;;;;;;5053717;28;20032;-75
2021/08/03 11:46:43;;;;;;;4.13;2.35;;;19.40;99.90;;;;;;5052826;28;20028;-74
2021/08/03 11:49:10;;;;;;;3.13;1.95;;;19.40;99.90;;;;;;5063571;28;20041;-74
2021/08/03 11:51:43;;;;;;;2.30;1.80;;;19.30;99.90;;;;;;5053346;28;20048;-74
2021/08/03 11:54:14;;;;;;;2.53;1.83;;;19.40;99.90;;;;;;5050537;28;20068;-74
2021/08/03 11:56:40;;;;;;;3.25;2.47;;;19.30;99.90;;;;;;5050744;28;21572;-75
2021/08/03 11:59:06;;;;;;;6.47;3.95;;;19.20;99.90;;;;;;5049136;28;20032;-73
2021/08/03 12:01:52;;;;;;;10.27;4.88;;;19.00;99.90;;;;;;5049670;28;20017;-73
2021/08/03 12:04:22;;;;;;;9.95;5.57;;;18.70;99.90;;;;;;5048515;28;20036;-73
2021/08/03 12:06:50;;;;;;;5.18;2.75;;;18.60;99.90;;;;;;5049204;28;20029;-73
2021/08/03 12:09:18;;;;;;;5.45;3.33;;;18.50;99.90;;;;;;5047400;28;20044;-74
2021/08/03 12:11:47;;;;;;;6.03;2.95;;;18.40;99.90;;;;;;5051503;28;20041;-73
2021/08/03 12:14:15;;;;;;;4.57;2.60;;;18.30;99.90;;;;;;5050626;28;20025;-73
2021/08/03 12:16:43;;;;;;;7.72;3.25;;;18.20;99.90;;;;;;5050547;28;20025;-73
2021/08/03 12:19:31;;;;;;;6.65;4.28;;;18.20;99.90;;;;;;5048947;28;21450;-73
2021/08/03 12:21:58;;;;;;;7.47;3.90;;;18.30;99.90;;;;;;5047859;28;20025;-73
2021/08/03 12:24:24;;;;;;;7.90;4.07;;;18.20;99.90;;;;;;5050656;28;20036;-73
2021/08/03 12:27:11;;;;;;;5.18;4.18;;;18.20;99.90;;;;;;5049924;28;20048;-73
2021/08/03 12:29:36;;;;;;;4.83;4.23;;;18.20;99.90;;;;;;5045066;28;20025;-73
2021/08/03 12:32:02;;;;;;;6.53;4.28;;;18.30;99.90;;;;;;5052078;28;20040;-74
2021/08/03 12:34:36;;;;;;;5.32;4.18;;;18.30;99.90;;;;;;5051298;28;20025;-74
2021/08/03 12:37:03;;;;;;;8.90;4.93;;;18.30;99.90;;;;;;5065354;28;20481;-73
2021/08/03 12:39:36;;;;;;;8.10;4.30;;;18.30;99.90;;;;;;5053176;28;20028;-74
2021/08/03 12:44:58;;;;;;;7.63;4.43;;;18.30;99.90;;;;;;5049034;28;20060;-73
2021/08/03 12:47:26;;;;;;;6.15;4.95;;;18.20;99.90;;;;;;5058801;28;20059;-73
2021/08/03 12:50:01;;;;;;;11.35;6.47;;;18.10;99.90;;;;;;5051195;28;20075;-73
2021/08/03 12:52:27;;;;;;;10.32;6.00;;;18.10;99.90;;;;;;5055739;28;20044;-73
2021/08/03 12:55:11;;;;;;;10.32;6.47;;;18.00;99.90;;;;;;5057889;28;20484;-73
2021/08/03 12:57:48;;;;;;;12.02;5.85;;;18.30;99.90;;;;;;5047219;28;20083;-73
2021/08/03 13:00:26;;;;;;;12.73;7.15;;;18.60;99.90;;;;;;5046938;28;20070;-73
2021/08/03 13:02:52;;;;;;;10.93;5.72;;;18.80;99.90;;;;;;5050988;28;20045;-73
2021/08/03 13:05:17;;;;;;;9.80;6.88;;;19.00;99.90;;;;;;5054203;28;20033;-75